createdAt,value
2022-12-12T00:01:04.318Z,69.20
2022-12-12T00:03:36.962Z,69.06
2022-12-12T00:06:09.362Z,68.87
2022-12-12T00:08:41.729Z,68.73
2022-12-12T00:11:14.347Z,69.30
2022-12-12T00:13:48.137Z,69.02
2022-12-12T00:16:20.396Z,69.76
2022-12-12T00:18:52.634Z,69.70
2022-12-12T00:21:26.695Z,69.76
2022-12-12T00:24:00.060Z,69.53
2022-12-12T00:26:34.967Z,69.25
2022-12-12T00:29:07.580Z,69.59
2022-12-12T00:31:39.764Z,69.92
2022-12-12T00:34:12.152Z,70.07
2022-12-12T00:36:44.501Z,69.67
2022-12-12T00:39:18.560Z,69.94
2022-12-12T00:41:51.205Z,69.71
2022-12-12T00:44:23.275Z,69.71
2022-12-12T00:46:55.345Z,69.66
2022-12-12T00:49:27.992Z,69.65
2022-12-12T00:52:00.230Z,70.13
2022-12-12T00:54:32.852Z,70.31
2022-12-12T00:57:05.274Z,70.31
2022-12-12T00:59:38.624Z,70.27
2022-12-12T01:02:10.749Z,70.28
2022-12-12T01:04:42.945Z,70.01
2022-12-12T01:07:15.078Z,70.00
2022-12-12T01:09:47.336Z,70.06
2022-12-12T01:12:21.670Z,70.18
2022-12-12T01:14:56.065Z,70.05
2022-12-12T01:17:28.158Z,70.36
2022-12-12T01:20:00.305Z,70.36
2022-12-12T01:22:32.751Z,70.04
2022-12-12T01:25:07.090Z,70.37
2022-12-12T01:27:39.133Z,70.12
2022-12-12T01:30:14.531Z,70.44
2022-12-12T01:32:46.661Z,70.47
2022-12-12T01:35:19.335Z,70.78
2022-12-12T01:37:51.537Z,70.74
2022-12-12T01:40:27.023Z,70.94
2022-12-12T01:43:00.212Z,70.78
2022-12-12T01:46:15.345Z,70.67
2022-12-12T01:48:55.527Z,70.63
2022-12-12T01:51:30.510Z,70.38
2022-12-12T01:54:08.705Z,70.69
2022-12-12T01:56:44.285Z,71.06
2022-12-12T01:59:19.078Z,71.21
2022-12-12T02:01:52.286Z,71.33
2022-12-12T02:04:25.004Z,71.42
2022-12-12T02:06:58.399Z,71.66
2022-12-12T02:09:30.873Z,71.62
2022-12-12T02:12:03.063Z,71.62
2022-12-12T02:14:39.887Z,71.50
2022-12-12T02:17:44.731Z,71.57
2022-12-12T02:20:46.540Z,71.52
2022-12-12T02:23:43.685Z,71.34
2022-12-12T02:26:51.699Z,71.16
2022-12-12T02:29:53.797Z,71.48
2022-12-12T02:32:33.249Z,71.29
2022-12-12T02:35:15.718Z,71.25
2022-12-12T02:37:59.434Z,71.55
2022-12-12T02:40:39.774Z,71.47
2022-12-12T02:43:20.494Z,71.58
2022-12-12T02:45:56.956Z,71.46
2022-12-12T02:48:36.548Z,71.22
2022-12-12T02:51:12.090Z,71.57
2022-12-12T02:53:44.123Z,71.50
2022-12-12T02:56:46.751Z,71.67
2022-12-12T02:59:23.291Z,71.74
2022-12-12T03:02:18.841Z,71.99
2022-12-12T03:05:15.390Z,72.01
2022-12-12T03:08:02.037Z,71.96
2022-12-12T03:10:50.640Z,72.14
2022-12-12T03:13:33.085Z,72.04
2022-12-12T03:16:20.564Z,72.17
2022-12-12T03:18:59.425Z,72.54
2022-12-12T03:21:41.204Z,72.79
2022-12-12T03:24:24.272Z,72.97
2022-12-12T03:26:59.951Z,72.67
2022-12-12T03:29:36.487Z,73.09
2022-12-12T03:32:13.205Z,72.74
2022-12-12T03:34:52.699Z,72.98
2022-12-12T03:37:28.984Z,72.92
2022-12-12T03:40:06.774Z,73.19
2022-12-12T03:42:44.621Z,73.13
2022-12-12T03:45:24.539Z,73.37
2022-12-12T03:48:02.216Z,73.46
2022-12-12T03:50:42.393Z,73.62
2022-12-12T03:53:23.316Z,73.82
2022-12-12T03:56:03.315Z,74.10
2022-12-12T03:58:39.840Z,73.82
2022-12-12T04:01:14.853Z,74.14
2022-12-12T04:03:56.496Z,74.11
2022-12-12T04:06:36.394Z,73.97
2022-12-12T04:09:30.459Z,73.91
2022-12-12T04:12:29.652Z,73.89
2022-12-12T04:15:47.326Z,73.82
2022-12-12T04:18:26.608Z,74.15
2022-12-12T04:21:23.699Z,74.50
2022-12-12T04:24:02.051Z,73.90
2022-12-12T04:26:41.739Z,73.65
2022-12-12T04:29:29.561Z,73.77
2022-12-12T04:32:09.544Z,73.09
2022-12-12T04:34:48.158Z,73.10
2022-12-12T04:37:23.900Z,73.64
2022-12-12T04:39:59.491Z,73.71
2022-12-12T04:42:35.971Z,73.56
2022-12-12T04:45:12.735Z,73.79
2022-12-12T04:47:49.674Z,73.70
2022-12-12T04:50:24.903Z,73.54
2022-12-12T04:53:02.022Z,73.92
2022-12-12T04:55:37.665Z,73.71
2022-12-12T04:58:10.134Z,73.31
2022-12-12T05:00:53.135Z,73.38
2022-12-12T05:03:33.437Z,73.43
2022-12-12T05:06:11.052Z,73.36
2022-12-12T05:08:46.212Z,73.45
2022-12-12T05:11:22.156Z,73.41
2022-12-12T05:13:54.293Z,73.55
2022-12-12T05:16:32.564Z,73.42
2022-12-12T05:19:05.240Z,73.70
2022-12-12T05:21:38.282Z,74.05
2022-12-12T05:24:11.126Z,73.70
2022-12-12T05:26:43.294Z,73.72
2022-12-12T05:29:15.463Z,73.65
2022-12-12T05:31:47.608Z,73.46
2022-12-12T05:34:21.789Z,73.74
2022-12-12T05:36:55.785Z,73.85
2022-12-12T05:39:27.777Z,74.01
2022-12-12T05:41:59.918Z,74.31
2022-12-12T05:44:32.200Z,74.20
2022-12-12T05:47:04.536Z,74.35
2022-12-12T05:49:36.622Z,74.61
2022-12-12T05:52:08.976Z,74.84
2022-12-12T05:54:41.304Z,74.44
2022-12-12T05:57:13.555Z,74.46
2022-12-12T05:59:46.174Z,74.29
2022-12-12T06:02:20.554Z,74.31
2022-12-12T06:04:56.071Z,74.38
2022-12-12T06:07:28.428Z,74.07
2022-12-12T06:10:00.526Z,74.44
2022-12-12T06:12:32.663Z,74.48
2022-12-12T06:15:05.492Z,74.62
2022-12-12T06:17:38.185Z,74.30
2022-12-12T06:20:11.923Z,74.10
2022-12-12T06:22:45.925Z,74.07
2022-12-12T06:25:21.350Z,74.14
2022-12-12T06:27:59.084Z,74.16
2022-12-12T06:30:31.690Z,74.12
2022-12-12T06:33:06.043Z,74.19
2022-12-12T06:35:38.261Z,73.96
2022-12-12T06:38:10.694Z,74.13
2022-12-12T06:40:43.960Z,74.29
2022-12-12T06:43:16.123Z,74.01
2022-12-12T06:45:48.652Z,74.11
2022-12-12T06:48:21.801Z,74.46
2022-12-12T06:50:57.112Z,74.15
2022-12-12T06:53:29.886Z,74.24
2022-12-12T06:56:06.043Z,74.49
2022-12-12T06:58:39.032Z,74.57
2022-12-12T07:01:12.284Z,74.47
2022-12-12T07:03:44.626Z,74.36
2022-12-12T07:06:18.163Z,74.09
2022-12-12T07:08:51.833Z,74.21
2022-12-12T07:11:25.975Z,74.66
2022-12-12T07:14:00.123Z,74.45
2022-12-12T07:16:32.576Z,74.33
2022-12-12T07:19:04.728Z,74.39
2022-12-12T07:21:36.924Z,74.42
2022-12-12T07:24:09.792Z,74.35
2022-12-12T07:26:41.850Z,74.49
2022-12-12T07:29:14.119Z,74.48
2022-12-12T07:31:46.508Z,74.35
2022-12-12T07:34:29.692Z,74.28
2022-12-12T07:37:03.310Z,74.37
2022-12-12T07:39:37.287Z,74.44
2022-12-12T07:42:09.297Z,74.39
2022-12-12T07:44:41.981Z,74.52
2022-12-12T07:47:14.323Z,74.59
2022-12-12T07:49:47.459Z,74.21
2022-12-12T07:52:19.630Z,74.29
2022-12-12T07:54:51.902Z,74.57
2022-12-12T07:57:24.271Z,74.80
2022-12-12T07:59:56.685Z,74.88
2022-12-12T08:02:28.884Z,75.08
2022-12-12T08:05:01.343Z,74.76
2022-12-12T08:07:33.583Z,74.73
2022-12-12T08:10:06.676Z,74.67
2022-12-12T08:12:38.883Z,73.80
2022-12-12T08:15:16.176Z,73.88
2022-12-12T08:17:48.368Z,73.81
2022-12-12T08:20:20.734Z,74.06
2022-12-12T08:22:52.929Z,74.02
2022-12-12T08:25:25.838Z,73.92
2022-12-12T08:27:57.966Z,73.83
2022-12-12T08:30:30.148Z,73.41
2022-12-12T08:33:07.821Z,73.50
2022-12-12T08:35:40.296Z,73.58
2022-12-12T08:38:12.456Z,73.43
2022-12-12T08:40:44.877Z,73.20
2022-12-12T08:43:17.148Z,73.12
2022-12-12T08:45:50.025Z,72.68
2022-12-12T08:48:22.311Z,72.49
2022-12-12T08:50:56.620Z,72.81
2022-12-12T08:53:29.040Z,72.56
2022-12-12T08:56:01.940Z,72.31
2022-12-12T08:58:34.085Z,72.52
2022-12-12T09:01:10.330Z,72.23
2022-12-12T09:03:43.338Z,71.91
2022-12-12T09:06:36.083Z,72.04
2022-12-12T09:09:08.426Z,71.88
2022-12-12T09:11:40.870Z,71.91
2022-12-12T09:14:13.358Z,71.66
2022-12-12T09:16:45.839Z,71.62
2022-12-12T09:19:18.333Z,71.22
2022-12-12T09:21:50.413Z,71.42
2022-12-12T09:24:24.177Z,71.08
2022-12-12T09:26:56.618Z,70.85
2022-12-12T09:29:28.669Z,70.43
2022-12-12T09:32:06.490Z,70.54
2022-12-12T09:34:39.623Z,70.72
2022-12-12T09:37:11.839Z,70.59
2022-12-12T09:39:44.423Z,70.28
2022-12-12T09:42:22.848Z,69.89
2022-12-12T09:44:58.318Z,69.68
2022-12-12T09:47:41.419Z,69.07
2022-12-12T09:50:20.277Z,69.40
2022-12-12T09:52:53.871Z,69.40
2022-12-12T09:55:35.207Z,68.89
2022-12-12T09:58:16.256Z,68.78
2022-12-12T10:00:52.830Z,68.98
2022-12-12T10:03:40.825Z,68.77
2022-12-12T10:06:36.648Z,69.03
2022-12-12T10:09:26.191Z,68.86
2022-12-12T10:12:01.046Z,68.74
2022-12-12T10:14:42.117Z,68.68
2022-12-12T10:17:18.734Z,68.44
2022-12-12T10:19:54.582Z,68.51
2022-12-12T10:22:37.345Z,68.63
2022-12-12T10:25:24.420Z,68.57
2022-12-12T10:28:05.882Z,68.76
2022-12-12T10:30:52.749Z,68.72
2022-12-12T10:33:32.323Z,68.53
2022-12-12T10:36:13.819Z,68.49
2022-12-12T10:39:04.559Z,68.35
2022-12-12T10:41:45.745Z,68.39
2022-12-12T10:44:30.038Z,68.01
2022-12-12T10:47:05.736Z,68.00
2022-12-12T10:49:38.319Z,67.60
2022-12-12T10:52:18.868Z,67.94
2022-12-12T10:54:55.965Z,68.02
2022-12-12T10:57:29.778Z,68.17
2022-12-12T11:00:16.322Z,67.93
2022-12-12T11:02:48.807Z,67.21
2022-12-12T11:05:25.044Z,67.23
2022-12-12T11:08:05.866Z,66.98
2022-12-12T11:10:38.858Z,66.52
2022-12-12T11:13:18.522Z,66.62
2022-12-12T11:15:54.142Z,66.43
2022-12-12T11:18:27.278Z,66.18
2022-12-12T11:21:07.477Z,66.00
2022-12-12T11:23:47.234Z,65.78
2022-12-12T11:26:21.872Z,65.45
2022-12-12T11:28:58.167Z,65.54
2022-12-12T11:31:34.786Z,65.52
2022-12-12T11:34:08.852Z,65.43
2022-12-12T11:36:42.746Z,65.37
2022-12-12T11:39:23.466Z,65.32
2022-12-12T11:42:05.121Z,65.25
2022-12-12T11:44:39.882Z,65.03
2022-12-12T11:47:27.131Z,64.67
2022-12-12T11:50:04.981Z,64.88
2022-12-12T11:52:38.913Z,64.90
2022-12-12T11:55:18.570Z,64.70
2022-12-12T11:58:09.700Z,64.54
2022-12-12T12:00:53.677Z,64.44
2022-12-12T12:03:32.766Z,64.54
2022-12-12T12:06:27.566Z,64.63
2022-12-12T12:09:24.032Z,64.48
2022-12-12T12:12:07.531Z,64.19
2022-12-12T12:15:04.762Z,64.30
2022-12-12T12:17:58.082Z,64.01
2022-12-12T12:20:48.656Z,64.04
2022-12-12T12:23:30.123Z,63.64
2022-12-12T12:26:09.884Z,63.03
2022-12-12T12:29:02.214Z,62.90
2022-12-12T12:31:43.857Z,62.15
2022-12-12T12:34:23.233Z,61.83
2022-12-12T12:37:12.375Z,61.77
2022-12-12T12:40:03.084Z,61.70
2022-12-12T12:42:49.972Z,61.39
2022-12-12T12:45:29.392Z,61.28
2022-12-12T12:48:10.418Z,61.69
2022-12-12T12:50:48.032Z,61.83
2022-12-12T12:53:29.176Z,62.04
2022-12-12T12:56:06.418Z,62.21
2022-12-12T12:58:45.379Z,61.95
2022-12-12T13:01:24.327Z,62.10
2022-12-12T13:04:02.362Z,62.57
2022-12-12T13:06:43.500Z,62.85
2022-12-12T13:09:25.427Z,63.18
2022-12-12T13:12:01.623Z,63.35
2022-12-12T13:14:45.194Z,63.57
2022-12-12T13:17:23.036Z,63.81
2022-12-12T13:19:57.870Z,63.69
2022-12-12T13:22:43.763Z,64.06
2022-12-12T13:25:21.387Z,64.51
2022-12-12T13:27:56.503Z,64.52
2022-12-12T13:30:40.117Z,64.25
2022-12-12T13:33:33.543Z,64.31
2022-12-12T13:36:14.455Z,64.77
2022-12-12T13:38:51.811Z,65.20
2022-12-12T13:41:24.199Z,65.43
2022-12-12T13:44:00.992Z,65.71
2022-12-12T13:46:43.397Z,65.67
2022-12-12T13:49:26.395Z,65.97
2022-12-12T13:52:27.849Z,65.89
2022-12-12T13:55:22.437Z,66.22
2022-12-12T13:58:18.675Z,66.46
2022-12-12T14:01:10.928Z,66.31
2022-12-12T14:03:47.115Z,66.56
2022-12-12T14:06:21.668Z,66.92
2022-12-12T14:08:55.144Z,66.80
2022-12-12T14:11:38.365Z,66.65
2022-12-12T14:14:21.739Z,66.85
2022-12-12T14:16:58.445Z,66.56
2022-12-12T14:19:34.485Z,66.69
2022-12-12T14:22:06.914Z,66.70
2022-12-12T14:25:05.414Z,66.84
2022-12-12T14:28:15.840Z,66.86
2022-12-12T14:30:53.779Z,67.21
2022-12-12T14:37:39.606Z,67.36
2022-12-12T14:40:21.446Z,67.27
2022-12-12T14:43:18.617Z,66.96
2022-12-12T14:45:58.901Z,67.28
2022-12-12T14:48:32.462Z,67.33
2022-12-12T14:51:09.220Z,67.45
2022-12-12T14:53:49.663Z,67.71
2022-12-12T14:56:25.997Z,67.98
2022-12-12T14:59:03.035Z,67.84
2022-12-12T15:01:39.658Z,67.30
2022-12-12T15:04:15.108Z,67.01
2022-12-12T15:06:51.174Z,67.06
2022-12-12T15:09:29.402Z,66.80
2022-12-12T15:12:16.635Z,67.34
2022-12-12T15:14:57.516Z,67.60
2022-12-12T15:17:32.080Z,67.66
2022-12-12T15:20:07.150Z,67.73
2022-12-12T15:22:51.544Z,67.88
2022-12-12T15:25:26.152Z,68.05
2022-12-12T15:27:59.538Z,68.03
2022-12-12T15:30:37.328Z,67.81
2022-12-12T15:33:17.404Z,67.76
2022-12-12T15:36:01.143Z,68.24
2022-12-12T15:38:35.532Z,67.62
2022-12-12T15:41:13.612Z,67.45
2022-12-12T15:43:46.001Z,67.25
2022-12-12T15:46:18.723Z,67.09
2022-12-12T15:48:51.726Z,66.59
2022-12-12T15:51:30.185Z,66.92
2022-12-12T15:54:03.331Z,66.94
2022-12-12T15:56:35.665Z,66.96
2022-12-12T15:59:24.500Z,66.69
2022-12-12T16:01:56.972Z,66.48
2022-12-12T16:04:29.012Z,66.42
2022-12-12T16:07:22.417Z,66.32
2022-12-12T16:10:19.949Z,66.24
2022-12-12T16:13:23.454Z,66.60
2022-12-12T16:15:56.679Z,66.68
2022-12-12T16:18:30.943Z,66.52
2022-12-12T16:21:03.767Z,66.34
2022-12-12T16:23:42.793Z,66.06
2022-12-12T16:26:15.023Z,66.37
2022-12-12T16:28:47.142Z,66.09
2022-12-12T16:31:20.236Z,66.40
2022-12-12T16:33:54.343Z,66.55
2022-12-12T16:36:26.358Z,66.07
2022-12-12T16:38:58.574Z,65.82
2022-12-12T16:41:30.682Z,66.13
2022-12-12T16:44:02.945Z,65.99
2022-12-12T16:46:34.989Z,66.07
2022-12-12T16:49:15.059Z,65.86
2022-12-12T16:51:48.186Z,65.96
2022-12-12T16:54:20.383Z,66.30
2022-12-12T16:56:54.114Z,66.41
2022-12-12T16:59:26.449Z,66.48
2022-12-12T17:01:58.760Z,66.20
2022-12-12T17:04:31.572Z,66.39
2022-12-12T17:07:08.023Z,66.16
2022-12-12T17:09:40.385Z,66.34
2022-12-12T17:12:13.281Z,66.65
2022-12-12T17:14:45.777Z,66.46
2022-12-12T17:17:17.979Z,66.64
2022-12-12T17:19:50.863Z,66.52
2022-12-12T17:22:23.101Z,66.35
2022-12-12T17:24:55.368Z,66.51
2022-12-12T17:27:27.825Z,66.55
2022-12-12T17:29:59.910Z,66.66
2022-12-12T17:32:32.494Z,66.98
2022-12-12T17:35:05.659Z,66.61
2022-12-12T17:37:37.876Z,66.66
2022-12-12T17:40:12.586Z,66.39
2022-12-12T17:42:45.072Z,66.26
2022-12-12T17:45:17.362Z,66.38
2022-12-12T17:47:49.774Z,66.56
2022-12-12T17:50:22.369Z,66.81
2022-12-12T17:52:54.721Z,67.00
2022-12-12T17:55:53.712Z,66.79
2022-12-12T17:58:19.676Z,66.89
2022-12-12T18:00:52.141Z,66.64
2022-12-12T18:03:24.482Z,66.87
2022-12-12T18:06:00.715Z,67.48
2022-12-12T18:08:32.896Z,67.28
2022-12-12T18:11:09.406Z,67.11
2022-12-12T18:13:43.096Z,67.04
2022-12-12T18:16:16.264Z,66.84
2022-12-12T18:18:48.754Z,67.03
2022-12-12T18:21:58.599Z,67.07
2022-12-12T18:24:16.748Z,67.27
2022-12-12T18:26:51.813Z,67.37
2022-12-12T18:29:24.707Z,67.73
2022-12-12T18:31:56.951Z,67.74
2022-12-12T18:34:29.853Z,67.48
2022-12-12T18:37:02.215Z,67.51
2022-12-12T18:39:34.394Z,67.70
2022-12-12T18:42:06.640Z,67.84
2022-12-12T18:44:38.840Z,67.87
2022-12-12T18:47:10.961Z,67.71
2022-12-12T18:49:43.352Z,67.50
2022-12-12T18:52:15.630Z,67.72
2022-12-12T18:54:48.190Z,67.65
2022-12-12T18:57:20.664Z,67.68
2022-12-12T18:59:53.070Z,67.81
2022-12-12T19:02:25.338Z,67.96
2022-12-12T19:04:57.539Z,67.67
2022-12-12T19:07:29.926Z,67.73
2022-12-12T19:10:02.145Z,67.47
2022-12-12T19:12:34.450Z,67.46
2022-12-12T19:15:16.661Z,67.75
2022-12-12T19:17:50.871Z,67.96
2022-12-12T19:20:23.228Z,68.01
2022-12-12T19:22:55.475Z,67.70
2022-12-12T19:25:27.701Z,67.98
2022-12-12T19:28:02.364Z,68.28
2022-12-12T19:30:38.651Z,67.95
2022-12-12T19:33:10.840Z,67.94
2022-12-12T19:35:42.996Z,68.37
2022-12-12T19:38:22.745Z,68.56
2022-12-12T19:40:56.682Z,67.99
2022-12-12T19:43:31.707Z,67.93
2022-12-12T19:46:15.593Z,67.83
2022-12-12T19:48:49.239Z,68.26
2022-12-12T19:51:22.986Z,68.60
2022-12-12T19:53:59.820Z,68.50
2022-12-12T19:56:35.424Z,68.69
2022-12-12T19:59:07.764Z,68.42
2022-12-12T20:01:41.546Z,68.19
2022-12-12T20:04:17.548Z,68.13
2022-12-12T20:06:51.672Z,68.12
2022-12-12T20:09:26.922Z,67.96
2022-12-12T20:12:01.159Z,67.93
2022-12-12T20:14:35.552Z,68.04
2022-12-12T20:17:07.958Z,68.05
2022-12-12T20:19:40.516Z,67.86
2022-12-12T20:22:13.432Z,67.96
2022-12-12T20:24:45.869Z,67.99
2022-12-12T20:27:18.896Z,67.89
2022-12-12T20:29:51.338Z,67.86
2022-12-12T20:32:23.531Z,67.42
2022-12-12T20:34:55.779Z,67.66
2022-12-12T20:37:28.718Z,67.99
2022-12-12T20:40:01.191Z,68.16
2022-12-12T20:42:33.677Z,68.16
2022-12-12T20:45:06.612Z,67.49
2022-12-12T20:47:38.862Z,67.62
2022-12-12T20:50:13.677Z,67.83
2022-12-12T20:52:46.047Z,67.88
2022-12-12T20:55:18.480Z,67.56
2022-12-12T20:57:51.086Z,67.59
2022-12-12T21:00:26.182Z,67.33
2022-12-12T21:02:58.452Z,67.24
2022-12-12T21:05:31.632Z,67.37
2022-12-12T21:08:04.035Z,67.24
2022-12-12T21:10:36.750Z,67.67
2022-12-12T21:13:08.945Z,67.58
2022-12-12T21:15:41.701Z,67.16
2022-12-12T21:18:14.034Z,67.44
2022-12-12T21:20:47.764Z,67.48
2022-12-12T21:23:20.939Z,67.38
2022-12-12T21:25:53.426Z,67.27
2022-12-12T21:28:25.866Z,67.61
2022-12-12T21:30:58.302Z,67.71
2022-12-12T21:33:30.458Z,67.74
2022-12-12T21:36:06.892Z,67.99
2022-12-12T21:38:40.090Z,67.50
2022-12-12T21:41:14.978Z,66.75
2022-12-12T21:43:48.089Z,66.73
2022-12-12T21:46:22.521Z,66.85
2022-12-12T21:49:09.001Z,66.81
2022-12-12T21:51:41.998Z,66.90
2022-12-12T21:54:15.955Z,66.65
2022-12-12T21:56:49.755Z,66.42
2022-12-12T21:59:23.400Z,66.12
2022-12-12T22:01:56.772Z,66.71
2022-12-12T22:04:29.052Z,66.48
2022-12-12T22:07:01.642Z,66.80
2022-12-12T22:09:33.774Z,66.48
2022-12-12T22:12:06.362Z,66.59
2022-12-12T22:14:38.529Z,66.43
2022-12-12T22:17:11.033Z,66.34
2022-12-12T22:19:43.162Z,66.16
2022-12-12T22:22:15.259Z,66.24
2022-12-12T22:24:47.256Z,65.65
2022-12-12T22:27:19.452Z,65.71
2022-12-12T22:29:51.669Z,65.32
2022-12-12T22:32:23.750Z,65.30
2022-12-12T22:34:58.111Z,65.94
2022-12-12T22:37:29.233Z,66.09
2022-12-12T22:40:01.828Z,65.68
2022-12-12T22:42:34.221Z,65.59
2022-12-12T22:45:07.988Z,66.05
2022-12-12T22:47:40.591Z,65.81
2022-12-12T22:50:13.227Z,65.89
2022-12-12T22:52:45.515Z,65.33
2022-12-12T22:55:17.651Z,65.41
2022-12-12T22:57:50.146Z,65.07
2022-12-12T23:00:22.960Z,65.18
2022-12-12T23:02:55.311Z,64.75
2022-12-12T23:05:27.493Z,64.86
2022-12-12T23:07:59.603Z,64.78
2022-12-12T23:10:31.866Z,65.06
2022-12-12T23:13:04.201Z,64.90
2022-12-12T23:15:41.572Z,65.38
2022-12-12T23:18:15.645Z,65.83
2022-12-12T23:20:49.017Z,65.71
2022-12-12T23:23:21.094Z,65.57
2022-12-12T23:25:53.673Z,65.44
2022-12-12T23:28:26.466Z,65.23
2022-12-12T23:30:58.645Z,65.10
2022-12-12T23:33:31.025Z,65.21
2022-12-12T23:36:03.085Z,64.99
2022-12-12T23:38:35.526Z,65.26
2022-12-12T23:41:09.784Z,64.84
2022-12-12T23:43:43.133Z,65.00
2022-12-12T23:46:29.306Z,64.69
2022-12-12T23:49:04.212Z,64.94
2022-12-12T23:51:35.606Z,64.66
2022-12-12T23:54:12.401Z,64.15
2022-12-12T23:56:45.669Z,64.63
2022-12-12T23:59:19.800Z,64.36
